Apolinario Saravia, Argentina
Current Conditions -  °F | °C
As of 2:00 PM on Thursday 18 Dec 2014 (Local Time) from SASJ Reporting Station
Broken Clouds Broken Clouds  
Wind Chill: 75°   Ceiling: 10000
Heat Index: 75°   Visibility: 6mi
Dew Point: 63°   Wind: 2mph
Humidity: 65%   Direction: 50°NE
Pressure: 30"   Gusts: NA
Location:  24.56°S, 64.14°W
Report Text: SASJ 181700Z 05002KT 9999 SCT025 FEW030TCUBKN100 24/17 Q1016
Loading
Personal Weather Stations






























Interactive Weather Map New forecast layout! Learn more

10-Day Weather Forecast

Advertisements
Track Severe Weather on mobile